createdAt,value
2018-03-25T00:00:17.629Z,10.50
2018-03-25T00:01:17.610Z,11.70
2018-03-25T00:02:17.581Z,11.90
2018-03-25T00:03:17.536Z,10.20
2018-03-25T00:04:17.509Z,10.20
2018-03-25T00:05:17.477Z,10.10
2018-03-25T00:06:17.451Z,10.10
2018-03-25T00:07:17.424Z,10.50
2018-03-25T00:08:17.395Z,10.80
2018-03-25T00:09:17.369Z,10.20
2018-03-25T00:10:17.332Z,9.80
2018-03-25T00:11:17.312Z,9.40
2018-03-25T00:12:17.281Z,10.20
2018-03-25T00:13:17.260Z,10.40
2018-03-25T00:14:17.223Z,10.40
2018-03-25T00:15:17.200Z,10.10
2018-03-25T00:16:17.159Z,10.10
2018-03-25T00:17:17.134Z,9.70
2018-03-25T00:18:17.109Z,10.60
2018-03-25T00:19:17.074Z,9.80
2018-03-25T00:20:17.038Z,10.20
2018-03-25T00:21:17.038Z,10.00
2018-03-25T00:22:16.990Z,10.00
2018-03-25T00:23:16.960Z,10.00
2018-03-25T00:24:16.924Z,9.80
2018-03-25T00:25:16.906Z,9.80
2018-03-25T00:26:16.869Z,10.20
2018-03-25T00:27:16.851Z,10.00
2018-03-25T00:28:16.811Z,10.20
2018-03-25T00:29:16.805Z,10.80
2018-03-25T00:30:16.758Z,10.50
2018-03-25T00:31:16.722Z,9.70
2018-03-25T00:32:16.702Z,11.20
2018-03-25T00:33:16.669Z,9.70
2018-03-25T00:34:16.637Z,10.00
2018-03-25T00:35:16.608Z,9.40
2018-03-25T00:36:16.594Z,11.80
2018-03-25T00:37:16.583Z,10.10
2018-03-25T00:38:16.522Z,10.30
2018-03-25T00:39:16.491Z,10.10
2018-03-25T00:40:16.463Z,10.30
2018-03-25T00:41:16.464Z,11.10
2018-03-25T00:42:16.406Z,10.10
2018-03-25T00:43:16.382Z,10.30
2018-03-25T00:44:16.349Z,10.60
2018-03-25T00:45:16.320Z,11.40
2018-03-25T00:46:16.291Z,10.20
2018-03-25T00:47:16.271Z,9.90
2018-03-25T00:48:16.271Z,10.20
2018-03-25T00:49:16.215Z,9.80
2018-03-25T00:50:16.194Z,10.10
2018-03-25T00:51:16.148Z,10.40
2018-03-25T00:52:16.118Z,10.60
2018-03-25T00:53:16.090Z,11.80
2018-03-25T00:54:16.048Z,10.60
2018-03-25T00:55:16.029Z,10.30
2018-03-25T00:56:16.007Z,10.20
2018-03-25T00:57:15.963Z,10.70
2018-03-25T00:58:15.940Z,9.60
2018-03-25T00:59:15.945Z,10.00
2018-03-25T01:00:15.894Z,11.00
2018-03-25T01:01:15.881Z,10.60
2018-03-25T01:02:15.838Z,10.70
2018-03-25T01:03:15.788Z,11.80
2018-03-25T01:04:15.797Z,10.90
2018-03-25T01:05:15.739Z,10.30
2018-03-25T01:06:15.707Z,10.80
2018-03-25T01:07:15.690Z,10.00
2018-03-25T01:08:15.650Z,9.40
2018-03-25T01:09:15.640Z,9.80
2018-03-25T01:10:15.592Z,11.30
2018-03-25T01:11:15.584Z,10.40
2018-03-25T01:12:15.541Z,11.40
2018-03-25T01:13:15.496Z,12.10
2018-03-25T01:14:15.468Z,14.40
2018-03-25T01:15:15.459Z,14.40
2018-03-25T01:16:15.411Z,16.20
2018-03-25T01:17:15.391Z,13.80
2018-03-25T01:18:15.370Z,13.60
2018-03-25T01:19:15.320Z,14.70
2018-03-25T01:20:15.295Z,12.30
2018-03-25T01:21:15.275Z,11.10
2018-03-25T01:22:15.242Z,11.30
2018-03-25T01:23:15.206Z,12.00
2018-03-25T01:24:15.188Z,11.30
2018-03-25T01:25:15.153Z,12.30
2018-03-25T01:26:15.121Z,12.30
2018-03-25T01:27:15.096Z,10.30
2018-03-25T01:28:15.080Z,11.20
2018-03-25T01:29:15.039Z,10.90
2018-03-25T01:30:14.998Z,10.50
2018-03-25T01:31:14.982Z,10.50
2018-03-25T01:32:14.949Z,9.90
2018-03-25T01:33:14.932Z,10.20
2018-03-25T01:34:14.891Z,11.10
2018-03-25T01:35:14.861Z,9.40
2018-03-25T01:36:14.873Z,9.10
2018-03-25T01:37:14.804Z,9.30
2018-03-25T01:38:14.835Z,9.60
2018-03-25T01:39:14.753Z,10.20
2018-03-25T01:40:14.722Z,10.00
2018-03-25T01:41:14.702Z,10.30
2018-03-25T01:42:14.656Z,9.20
2018-03-25T01:43:14.630Z,9.90
2018-03-25T01:44:14.626Z,10.50
2018-03-25T01:45:14.652Z,9.70
2018-03-25T01:46:14.545Z,10.40
2018-03-25T01:47:14.542Z,9.80
2018-03-25T01:48:14.492Z,8.80
2018-03-25T01:49:14.470Z,9.50
2018-03-25T01:50:14.455Z,9.40
2018-03-25T01:51:14.400Z,9.20
2018-03-25T01:52:14.378Z,9.90
2018-03-25T01:53:14.376Z,8.40
2018-03-25T01:54:14.371Z,9.60
2018-03-25T01:55:14.301Z,9.70
2018-03-25T01:56:14.273Z,8.80
2018-03-25T01:57:14.221Z,9.50
2018-03-25T01:58:14.203Z,9.60
2018-03-25T01:59:14.162Z,9.20
2018-03-25T02:00:14.137Z,9.80
2018-03-25T02:01:14.110Z,8.30
2018-03-25T02:02:14.082Z,9.80
2018-03-25T02:03:14.046Z,9.60
2018-03-25T02:04:14.022Z,9.80
2018-03-25T02:05:13.986Z,10.00
2018-03-25T02:06:13.974Z,9.00
2018-03-25T02:07:13.930Z,8.50
2018-03-25T02:08:13.903Z,10.10
2018-03-25T02:09:13.876Z,9.40
2018-03-25T02:10:13.843Z,10.00
2018-03-25T02:11:13.817Z,10.70
2018-03-25T02:12:13.778Z,9.50
2018-03-25T02:13:13.785Z,9.50
2018-03-25T02:14:13.726Z,10.20
2018-03-25T02:15:13.694Z,10.50
2018-03-25T02:16:13.686Z,9.70
2018-03-25T02:17:13.642Z,10.70
2018-03-25T02:18:13.654Z,9.60
2018-03-25T02:19:13.635Z,9.60
2018-03-25T02:20:13.552Z,9.70
2018-03-25T02:21:13.531Z,9.40
2018-03-25T02:22:13.523Z,9.00
2018-03-25T02:23:13.466Z,9.90
2018-03-25T02:24:13.463Z,8.90
2018-03-25T02:25:13.396Z,9.50
2018-03-25T02:26:13.377Z,9.10
2018-03-25T02:27:13.377Z,8.80
2018-03-25T02:28:13.318Z,8.50
2018-03-25T02:29:13.288Z,9.30
2018-03-25T02:30:13.256Z,8.70
2018-03-25T02:31:13.228Z,8.60
2018-03-25T02:32:13.201Z,9.40
2018-03-25T02:33:13.171Z,9.10
2018-03-25T02:34:13.141Z,8.70
2018-03-25T02:35:13.118Z,8.70
2018-03-25T02:36:13.092Z,9.60
2018-03-25T02:37:13.047Z,9.20
2018-03-25T02:38:13.021Z,9.80
2018-03-25T02:39:13.010Z,9.90
2018-03-25T02:40:12.962Z,9.50
2018-03-25T02:41:12.946Z,9.70
2018-03-25T02:42:12.903Z,10.00
2018-03-25T02:43:12.892Z,9.60
2018-03-25T02:44:12.847Z,8.70
2018-03-25T02:45:12.832Z,9.70
2018-03-25T02:46:12.780Z,8.60
2018-03-25T02:47:13.358Z,9.90
2018-03-25T02:48:12.761Z,9.20
2018-03-25T02:49:12.701Z,8.90
2018-03-25T02:50:12.680Z,8.00
2018-03-25T02:51:12.672Z,9.10
2018-03-25T02:52:12.623Z,8.70
2018-03-25T02:53:12.605Z,8.80
2018-03-25T02:54:12.557Z,8.60
2018-03-25T02:55:12.520Z,8.90
2018-03-25T02:56:12.519Z,9.70
2018-03-25T02:57:12.465Z,9.40
2018-03-25T02:58:12.441Z,8.40
2018-03-25T02:59:12.454Z,9.20
2018-03-25T03:00:12.400Z,8.90
2018-03-25T03:01:12.362Z,8.80
2018-03-25T03:02:12.318Z,9.50
2018-03-25T03:03:12.301Z,9.00
2018-03-25T03:04:12.368Z,9.50
2018-03-25T03:05:12.232Z,9.30
2018-03-25T03:06:12.221Z,9.20
2018-03-25T03:07:12.178Z,9.90
2018-03-25T03:08:12.157Z,10.00
2018-03-25T03:09:12.121Z,9.50
2018-03-25T03:10:12.097Z,9.60
2018-03-25T03:11:12.048Z,8.90
2018-03-25T03:12:12.021Z,9.10
2018-03-25T03:13:12.006Z,9.10
2018-03-25T03:14:11.977Z,8.90
2018-03-25T03:15:11.935Z,8.80
2018-03-25T03:16:11.929Z,8.70
2018-03-25T03:17:11.899Z,9.90
2018-03-25T03:18:11.874Z,8.30
2018-03-25T03:19:11.838Z,8.70
2018-03-25T03:20:11.790Z,8.40
2018-03-25T03:21:11.770Z,9.70
2018-03-25T03:22:11.751Z,9.50
2018-03-25T03:23:11.717Z,8.40
2018-03-25T03:24:11.683Z,9.10
2018-03-25T03:25:11.688Z,10.60
2018-03-25T03:26:11.684Z,9.20
2018-03-25T03:27:11.595Z,7.70
2018-03-25T03:28:11.550Z,9.50
2018-03-25T03:29:11.550Z,9.00
2018-03-25T03:30:11.504Z,9.10
2018-03-25T03:31:11.479Z,8.90
2018-03-25T03:32:11.436Z,8.80
2018-03-25T03:33:11.395Z,9.00
2018-03-25T03:34:11.373Z,7.90
2018-03-25T03:35:11.358Z,8.20
2018-03-25T03:36:11.316Z,9.40
2018-03-25T03:37:11.289Z,8.60
2018-03-25T03:38:11.261Z,8.40
2018-03-25T03:39:11.254Z,8.70
2018-03-25T03:40:11.226Z,9.20
2018-03-25T03:41:11.189Z,9.50
2018-03-25T03:42:11.145Z,9.00
2018-03-25T03:43:11.103Z,9.80
2018-03-25T03:44:11.088Z,9.30
2018-03-25T03:45:11.049Z,8.60
2018-03-25T03:46:11.023Z,8.70
2018-03-25T03:47:11.009Z,9.60
2018-03-25T03:48:10.961Z,8.60
2018-03-25T03:49:10.934Z,7.70
2018-03-25T03:50:10.926Z,8.10
2018-03-25T03:51:10.877Z,8.90
2018-03-25T03:52:10.853Z,8.40
2018-03-25T03:53:10.823Z,9.50
2018-03-25T03:54:10.848Z,8.60
2018-03-25T03:55:10.750Z,9.70
2018-03-25T03:56:10.723Z,8.40
2018-03-25T03:57:10.700Z,9.20
2018-03-25T03:58:10.693Z,9.60
2018-03-25T03:59:10.680Z,10.00
2018-03-25T04:00:10.625Z,9.40
2018-03-25T04:01:10.678Z,8.90
2018-03-25T04:02:11.362Z,8.90
2018-03-25T04:03:10.516Z,9.10
2018-03-25T04:04:10.501Z,8.60
2018-03-25T04:05:10.476Z,8.90
2018-03-25T04:06:10.431Z,29.40
2018-03-25T04:07:10.447Z,13.10
2018-03-25T04:08:10.371Z,20.60
2018-03-25T04:09:10.353Z,15.80
2018-03-25T04:10:10.321Z,20.20
2018-03-25T04:11:10.296Z,30.60
2018-03-25T04:12:10.271Z,14.00
2018-03-25T04:13:10.249Z,19.60
2018-03-25T04:14:10.206Z,15.50
2018-03-25T04:15:10.173Z,20.70
2018-03-25T04:16:10.141Z,18.70
2018-03-25T04:17:10.111Z,24.30
2018-03-25T04:18:10.087Z,15.50
2018-03-25T04:19:10.088Z,19.60
2018-03-25T04:20:10.024Z,11.00
2018-03-25T04:21:10.020Z,23.60
2018-03-25T04:22:09.967Z,29.50
2018-03-25T04:23:09.941Z,9.30
2018-03-25T04:24:09.932Z,9.90
2018-03-25T04:25:09.889Z,23.40
2018-03-25T04:26:09.856Z,20.50
2018-03-25T04:27:09.838Z,17.40
2018-03-25T04:28:09.799Z,10.80
2018-03-25T04:29:09.775Z,9.70
2018-03-25T04:30:09.747Z,9.20
2018-03-25T04:31:09.704Z,9.40
2018-03-25T04:32:09.685Z,9.60
2018-03-25T04:33:09.658Z,9.50
2018-03-25T04:34:09.622Z,9.90
2018-03-25T04:35:09.600Z,9.30
2018-03-25T04:36:09.576Z,9.50
2018-03-25T04:37:09.525Z,9.80
2018-03-25T04:38:09.508Z,9.70
2018-03-25T04:39:09.501Z,9.50
2018-03-25T04:40:09.441Z,9.20
2018-03-25T04:41:09.415Z,9.50
2018-03-25T04:42:09.378Z,9.40
2018-03-25T04:43:09.358Z,9.80
2018-03-25T04:44:09.344Z,10.30
2018-03-25T04:45:09.310Z,9.50
2018-03-25T04:46:09.269Z,9.50
2018-03-25T04:47:09.263Z,9.10
2018-03-25T04:48:09.206Z,8.40
2018-03-25T04:49:09.181Z,9.70
2018-03-25T04:50:09.186Z,10.40
2018-03-25T04:51:09.122Z,10.20
2018-03-25T04:52:09.093Z,9.20
2018-03-25T04:53:09.096Z,9.80
2018-03-25T04:54:09.031Z,9.80
2018-03-25T04:55:09.025Z,8.90
2018-03-25T04:56:09.058Z,10.30
2018-03-25T04:57:08.940Z,8.90
2018-03-25T04:58:16.878Z,9.70
2018-03-25T05:00:01.785Z,9.40
2018-03-25T05:01:01.770Z,9.30
2018-03-25T05:02:01.705Z,9.80
2018-03-25T05:03:01.678Z,9.70
2018-03-25T05:04:01.652Z,10.00
2018-03-25T05:05:01.618Z,9.30
2018-03-25T05:06:01.585Z,9.80
2018-03-25T05:07:01.562Z,9.30
2018-03-25T05:08:01.528Z,9.30
2018-03-25T05:09:01.532Z,9.60
2018-03-25T05:10:01.471Z,10.10
2018-03-25T05:11:01.441Z,9.80
2018-03-25T05:12:01.419Z,9.60
2018-03-25T05:13:01.386Z,10.10
2018-03-25T05:14:01.359Z,9.40
2018-03-25T05:15:01.328Z,9.80
2018-03-25T05:16:01.293Z,9.70
2018-03-25T05:17:01.268Z,11.00
2018-03-25T05:18:01.313Z,9.30
2018-03-25T05:19:01.210Z,9.40
2018-03-25T05:20:01.205Z,10.40
2018-03-25T05:21:01.147Z,9.80
2018-03-25T05:22:01.127Z,9.30
2018-03-25T05:23:01.095Z,9.40
2018-03-25T05:24:01.060Z,9.20
2018-03-25T05:25:01.039Z,9.00
2018-03-25T05:26:01.007Z,9.90
2018-03-25T05:27:00.991Z,10.40
2018-03-25T05:28:00.961Z,9.50
2018-03-25T05:29:00.913Z,9.40
2018-03-25T05:30:00.890Z,9.70
2018-03-25T05:31:00.861Z,10.10
2018-03-25T05:32:00.854Z,9.80
2018-03-25T05:33:00.799Z,9.90
2018-03-25T05:34:00.771Z,10.00
2018-03-25T05:35:00.735Z,9.50
2018-03-25T05:36:00.715Z,10.00
2018-03-25T05:37:00.680Z,9.80
2018-03-25T05:38:00.654Z,9.90
2018-03-25T05:39:00.628Z,10.70
2018-03-25T05:40:00.591Z,9.80
2018-03-25T05:41:00.566Z,10.60
2018-03-25T05:42:00.532Z,9.60
2018-03-25T05:43:00.502Z,10.50
2018-03-25T05:44:00.480Z,10.50
2018-03-25T05:45:00.453Z,10.20
2018-03-25T05:46:00.420Z,8.40
2018-03-25T05:47:00.391Z,10.40
2018-03-25T05:48:00.358Z,10.30
2018-03-25T05:49:00.323Z,11.00
2018-03-25T05:50:00.303Z,10.90
2018-03-25T05:51:00.270Z,10.20
2018-03-25T05:52:00.265Z,11.10
2018-03-25T05:53:00.219Z,10.80
2018-03-25T05:54:00.228Z,10.20
2018-03-25T05:55:00.150Z,10.50
2018-03-25T05:56:00.138Z,10.30
2018-03-25T05:57:00.104Z,9.90
2018-03-25T05:58:00.068Z,10.80
2018-03-25T05:59:00.042Z,9.90
2018-03-25T06:00:00.012Z,9.80
2018-03-25T06:00:59.984Z,10.80
2018-03-25T06:01:59.956Z,10.10
2018-03-25T06:02:59.929Z,10.40
2018-03-25T06:03:59.891Z,11.10
2018-03-25T06:04:59.861Z,10.60
2018-03-25T06:05:59.838Z,11.00
2018-03-25T06:06:59.800Z,10.90
2018-03-25T06:07:59.780Z,10.30
2018-03-25T06:08:59.747Z,9.80
2018-03-25T06:09:59.716Z,10.80
2018-03-25T06:10:59.702Z,10.40
2018-03-25T06:12:02.153Z,10.20
2018-03-25T06:13:01.138Z,10.10
2018-03-25T06:14:01.171Z,11.80
2018-03-25T06:15:01.108Z,11.10
2018-03-25T06:15:59.620Z,11.40
2018-03-25T06:16:59.510Z,10.50
2018-03-25T06:17:59.519Z,11.00
2018-03-25T06:18:59.466Z,10.60
2018-03-25T06:19:59.428Z,10.50
2018-03-25T06:20:59.414Z,10.00
2018-03-25T06:21:59.371Z,11.60
2018-03-25T06:22:59.339Z,11.40
2018-03-25T06:23:59.314Z,10.50
2018-03-25T06:24:59.279Z,13.10
2018-03-25T06:25:59.256Z,11.00
2018-03-25T06:26:59.221Z,11.00
2018-03-25T06:27:59.201Z,10.80
2018-03-25T06:28:59.181Z,10.90
2018-03-25T06:29:59.141Z,10.10
2018-03-25T06:30:59.114Z,10.10
2018-03-25T06:31:59.087Z,11.70
2018-03-25T06:32:59.216Z,10.60
2018-03-25T06:33:59.022Z,10.70
2018-03-25T06:34:58.998Z,10.60
2018-03-25T06:35:58.969Z,10.20
2018-03-25T06:36:58.934Z,11.40
2018-03-25T06:37:58.910Z,10.50
2018-03-25T06:38:58.874Z,11.10
2018-03-25T06:39:58.854Z,11.40
2018-03-25T06:40:58.819Z,10.80
2018-03-25T06:41:58.812Z,10.30
2018-03-25T06:42:58.767Z,10.80
2018-03-25T06:43:58.753Z,10.70
2018-03-25T06:44:58.710Z,11.10
2018-03-25T06:45:58.676Z,10.30
2018-03-25T06:46:58.652Z,11.50
2018-03-25T06:47:58.617Z,11.30
2018-03-25T06:48:58.591Z,11.50
2018-03-25T06:49:58.564Z,10.90
2018-03-25T06:50:58.549Z,10.40
2018-03-25T06:51:58.504Z,10.50
2018-03-25T06:52:58.487Z,10.80
2018-03-25T06:53:58.447Z,11.60
2018-03-25T06:54:58.421Z,12.00
2018-03-25T06:55:58.396Z,12.30
2018-03-25T06:56:58.359Z,11.50
2018-03-25T06:57:58.341Z,11.60
2018-03-25T06:58:58.312Z,11.80
2018-03-25T06:59:58.278Z,10.70
2018-03-25T07:00:58.253Z,12.10
2018-03-25T07:01:58.250Z,12.50
2018-03-25T07:02:58.231Z,11.70
2018-03-25T07:03:58.165Z,11.00
2018-03-25T07:04:58.141Z,11.40
2018-03-25T07:05:58.110Z,12.60
2018-03-25T07:06:58.073Z,11.10
2018-03-25T07:07:58.055Z,10.60
2018-03-25T07:08:58.017Z,12.80
2018-03-25T07:09:57.997Z,11.70
2018-03-25T07:10:57.970Z,10.70
2018-03-25T07:11:57.940Z,11.60
2018-03-25T07:12:57.913Z,11.70
2018-03-25T07:13:57.877Z,12.40
2018-03-25T07:14:57.850Z,11.20
2018-03-25T07:15:57.831Z,11.90
2018-03-25T07:16:57.801Z,10.70
2018-03-25T07:17:57.770Z,10.60
2018-03-25T07:18:57.745Z,11.50
2018-03-25T07:19:57.713Z,11.10
2018-03-25T07:20:57.682Z,10.60
2018-03-25T07:21:57.649Z,11.70
2018-03-25T07:22:57.626Z,12.00
2018-03-25T07:23:57.598Z,11.50
2018-03-25T07:24:57.569Z,12.20
2018-03-25T07:25:57.536Z,11.90
2018-03-25T07:26:57.514Z,11.90
2018-03-25T07:27:57.485Z,11.90
2018-03-25T07:28:57.452Z,11.70
2018-03-25T07:29:57.431Z,10.80
2018-03-25T07:30:57.402Z,10.90
2018-03-25T07:31:57.374Z,12.30
2018-03-25T07:32:57.345Z,12.40
2018-03-25T07:33:57.317Z,11.30
2018-03-25T07:34:57.297Z,11.20
2018-03-25T07:35:57.263Z,13.00
2018-03-25T07:36:57.226Z,119.10
2018-03-25T07:37:57.204Z,176.20
2018-03-25T07:38:57.171Z,153.30
2018-03-25T07:39:57.151Z,104.80
2018-03-25T07:40:57.178Z,67.10
2018-03-25T07:41:57.094Z,24.40
2018-03-25T07:42:57.070Z,57.90
2018-03-25T07:43:57.032Z,51.40
2018-03-25T07:44:57.013Z,12.30
2018-03-25T07:45:56.988Z,18.80
2018-03-25T07:46:56.959Z,24.10
2018-03-25T07:47:56.928Z,19.00
2018-03-25T07:48:56.907Z,19.00
2018-03-25T07:49:56.906Z,21.40
2018-03-25T07:50:56.845Z,11.20
2018-03-25T07:51:56.827Z,14.80
2018-03-25T07:52:56.784Z,21.10
2018-03-25T07:53:56.762Z,19.90
2018-03-25T07:54:56.751Z,22.10
2018-03-25T07:55:56.707Z,19.90
2018-03-25T07:56:56.678Z,14.90
2018-03-25T07:57:56.667Z,18.30
2018-03-25T07:58:56.624Z,28.50
2018-03-25T07:59:56.596Z,11.80
2018-03-25T08:00:56.580Z,22.10
2018-03-25T08:01:56.569Z,23.80
2018-03-25T08:02:56.512Z,29.50
2018-03-25T08:03:56.503Z,17.70
2018-03-25T08:04:56.506Z,12.20
2018-03-25T08:05:56.437Z,16.30
2018-03-25T08:06:56.399Z,19.90
2018-03-25T08:07:56.375Z,18.90
2018-03-25T08:08:56.348Z,22.90
2018-03-25T08:09:56.329Z,15.50
2018-03-25T08:10:56.298Z,10.80
2018-03-25T08:11:56.281Z,11.40
2018-03-25T08:12:56.246Z,14.90
2018-03-25T08:13:56.241Z,19.00
2018-03-25T08:14:56.196Z,11.70
2018-03-25T08:15:56.184Z,14.50
2018-03-25T08:16:56.142Z,21.40
2018-03-25T08:17:56.102Z,15.00
2018-03-25T08:18:56.072Z,13.40
2018-03-25T08:19:56.055Z,15.60
2018-03-25T08:20:56.024Z,15.70
2018-03-25T08:21:56.011Z,15.30
2018-03-25T08:22:55.978Z,14.20
2018-03-25T08:23:55.966Z,15.50
2018-03-25T08:24:55.912Z,17.20
2018-03-25T08:25:55.891Z,12.30
2018-03-25T08:26:55.864Z,11.70
2018-03-25T08:27:55.867Z,14.00
2018-03-25T08:28:55.803Z,11.80
2018-03-25T08:29:55.778Z,15.10
2018-03-25T08:30:55.758Z,17.40
2018-03-25T08:31:55.747Z,11.70
2018-03-25T08:32:55.705Z,15.30
2018-03-25T08:33:55.698Z,14.50
2018-03-25T08:34:55.648Z,12.00
2018-03-25T08:35:55.619Z,13.50
2018-03-25T08:36:55.596Z,11.90
2018-03-25T08:37:55.570Z,12.40
2018-03-25T08:38:55.551Z,11.60
2018-03-25T08:39:55.528Z,12.40
2018-03-25T08:40:55.486Z,12.40
2018-03-25T08:41:55.462Z,11.30
2018-03-25T08:42:55.449Z,12.70
2018-03-25T08:43:55.405Z,12.10
2018-03-25T08:44:55.372Z,12.60
2018-03-25T08:45:55.373Z,12.00
2018-03-25T08:46:55.325Z,11.70
2018-03-25T08:47:55.302Z,12.00
2018-03-25T08:48:55.281Z,11.60
2018-03-25T08:49:55.240Z,11.40
2018-03-25T08:50:55.218Z,12.50
2018-03-25T08:51:55.190Z,12.20
2018-03-25T08:52:55.185Z,12.10
2018-03-25T08:53:55.140Z,11.70
2018-03-25T08:54:55.115Z,11.10
2018-03-25T08:55:55.084Z,11.30
2018-03-25T08:56:55.059Z,11.30
2018-03-25T08:57:55.032Z,12.50
2018-03-25T08:58:55.011Z,12.10
2018-03-25T08:59:54.974Z,10.80
2018-03-25T09:00:54.956Z,12.60
2018-03-25T09:01:54.938Z,11.60
2018-03-25T09:02:54.903Z,12.50
2018-03-25T09:03:54.916Z,12.30
2018-03-25T09:04:54.850Z,10.80
2018-03-25T09:05:54.819Z,12.10
2018-03-25T09:06:54.797Z,12.40
2018-03-25T09:07:54.764Z,12.00
2018-03-25T09:08:54.738Z,11.90
2018-03-25T09:09:54.711Z,12.40
2018-03-25T09:10:54.685Z,11.30
2018-03-25T09:11:54.671Z,12.00
2018-03-25T09:12:54.638Z,12.30
2018-03-25T09:13:54.614Z,12.00
2018-03-25T09:14:54.598Z,11.90
2018-03-25T09:15:54.569Z,13.20
2018-03-25T09:16:54.536Z,14.20
2018-03-25T09:17:54.512Z,12.20
2018-03-25T09:18:54.492Z,12.20
2018-03-25T09:19:54.457Z,12.60
2018-03-25T09:20:54.434Z,11.80
2018-03-25T09:21:54.404Z,10.90
2018-03-25T09:22:54.391Z,12.50
2018-03-25T09:23:54.354Z,12.90
2018-03-25T09:24:54.322Z,12.20
2018-03-25T09:25:54.310Z,12.30
2018-03-25T09:26:54.273Z,12.70
2018-03-25T09:27:54.271Z,13.20
2018-03-25T09:28:54.228Z,12.00
2018-03-25T09:29:54.200Z,11.40
2018-03-25T09:30:54.218Z,13.40
2018-03-25T09:31:54.147Z,13.30
2018-03-25T09:32:54.125Z,11.80
2018-03-25T09:33:54.091Z,12.90
2018-03-25T09:34:54.074Z,11.90
2018-03-25T09:35:54.050Z,12.40
2018-03-25T09:36:54.016Z,12.30
2018-03-25T09:37:53.996Z,11.80
2018-03-25T09:38:53.971Z,12.70
2018-03-25T09:39:53.937Z,12.80
2018-03-25T09:40:53.915Z,13.10
2018-03-25T09:41:53.892Z,12.70
2018-03-25T09:42:53.868Z,11.80
2018-03-25T09:43:53.847Z,13.90
2018-03-25T09:44:53.821Z,12.90
2018-03-25T09:45:53.790Z,13.60
2018-03-25T09:46:53.778Z,14.30
2018-03-25T09:47:53.739Z,13.00
2018-03-25T09:48:53.711Z,13.70
2018-03-25T09:49:53.690Z,13.20
2018-03-25T09:50:53.663Z,13.00
2018-03-25T09:51:53.637Z,12.80
2018-03-25T09:52:53.615Z,13.30
2018-03-25T09:53:53.579Z,12.70
2018-03-25T09:54:53.564Z,13.50
2018-03-25T09:55:53.534Z,12.30
2018-03-25T09:56:53.508Z,12.50
2018-03-25T09:57:53.484Z,12.90
2018-03-25T09:58:53.453Z,12.60
2018-03-25T09:59:53.432Z,13.40
2018-03-25T10:00:53.402Z,13.60
2018-03-25T10:01:53.392Z,14.50
2018-03-25T10:02:53.356Z,13.70
2018-03-25T10:03:53.332Z,13.30
2018-03-25T10:04:53.331Z,12.70
2018-03-25T10:05:53.282Z,12.90
2018-03-25T10:06:53.248Z,12.40
2018-03-25T10:07:53.233Z,14.20
2018-03-25T10:08:53.197Z,13.00
2018-03-25T10:09:53.180Z,13.50
2018-03-25T10:10:53.154Z,13.30
2018-03-25T10:11:53.126Z,14.20
2018-03-25T10:12:53.101Z,12.90
2018-03-25T10:13:53.069Z,13.70
2018-03-25T10:14:53.046Z,14.20
2018-03-25T10:15:53.028Z,14.00
2018-03-25T10:16:53.008Z,14.10
2018-03-25T10:17:52.973Z,13.00
2018-03-25T10:18:52.966Z,11.80
2018-03-25T10:19:52.928Z,13.30
2018-03-25T10:20:52.909Z,13.70
2018-03-25T10:21:52.870Z,14.00
2018-03-25T10:22:52.851Z,12.80
2018-03-25T10:23:52.835Z,13.40
2018-03-25T10:24:52.800Z,13.20
2018-03-25T10:25:52.769Z,14.40
2018-03-25T10:26:52.746Z,13.90
2018-03-25T10:27:52.722Z,13.00
2018-03-25T10:28:52.697Z,13.90
2018-03-25T10:29:52.680Z,12.60
2018-03-25T10:30:52.654Z,13.30
2018-03-25T10:31:52.630Z,14.20
2018-03-25T10:32:52.603Z,12.20
2018-03-25T10:33:52.569Z,13.80
2018-03-25T10:34:52.555Z,14.90
2018-03-25T10:35:52.561Z,14.50
2018-03-25T10:36:52.499Z,15.50
2018-03-25T10:37:52.477Z,13.80
2018-03-25T10:38:52.446Z,12.70
2018-03-25T10:39:52.430Z,12.30
2018-03-25T10:40:52.404Z,13.00
2018-03-25T10:41:52.407Z,13.10
2018-03-25T10:42:52.359Z,13.50
2018-03-25T10:43:52.325Z,12.70
2018-03-25T10:44:52.329Z,13.90
2018-03-25T10:45:52.279Z,13.20
2018-03-25T10:46:52.257Z,12.60
2018-03-25T10:47:52.246Z,13.70
2018-03-25T10:48:52.210Z,13.30
2018-03-25T10:49:52.179Z,13.20
2018-03-25T10:50:52.175Z,13.40
2018-03-25T10:51:52.144Z,13.70
2018-03-25T10:52:52.111Z,13.20
2018-03-25T10:53:52.112Z,13.30
2018-03-25T10:54:52.067Z,13.30
2018-03-25T10:55:52.035Z,13.50
2018-03-25T10:56:52.015Z,12.80
2018-03-25T10:57:51.984Z,12.40
2018-03-25T10:58:51.957Z,13.60
2018-03-25T10:59:51.945Z,12.10
2018-03-25T11:00:51.915Z,13.10
2018-03-25T11:01:51.911Z,12.50
2018-03-25T11:02:51.926Z,12.10
2018-03-25T11:03:51.841Z,12.00
2018-03-25T11:04:51.871Z,12.90
2018-03-25T11:05:51.792Z,13.10
2018-03-25T11:06:51.772Z,12.40
2018-03-25T11:07:51.736Z,12.00
2018-03-25T11:08:51.719Z,13.10
2018-03-25T11:09:52.396Z,12.60
2018-03-25T11:10:51.675Z,13.40
2018-03-25T11:11:51.645Z,12.70
2018-03-25T11:12:51.622Z,12.30
2018-03-25T11:13:51.598Z,12.90
2018-03-25T11:14:51.568Z,12.60
2018-03-25T11:15:51.547Z,12.40
2018-03-25T11:16:51.519Z,12.50
2018-03-25T11:17:51.547Z,12.90
2018-03-25T11:18:51.500Z,13.70
2018-03-25T11:19:51.469Z,12.10
2018-03-25T11:20:51.538Z,13.60
2018-03-25T11:21:51.400Z,12.00
2018-03-25T11:22:51.410Z,13.10
2018-03-25T11:23:51.382Z,12.10
2018-03-25T11:24:51.348Z,12.10
2018-03-25T11:25:51.301Z,11.50
2018-03-25T11:26:51.315Z,11.50
2018-03-25T11:27:51.282Z,12.80
2018-03-25T11:28:51.228Z,11.60
2018-03-25T11:29:51.257Z,13.90
2018-03-25T11:30:58.903Z,12.00
2018-03-25T11:32:44.187Z,11.20
2018-03-25T11:33:44.070Z,12.10
2018-03-25T11:35:36.944Z,11.60
2018-03-25T11:36:36.919Z,11.20
2018-03-25T11:38:29.953Z,12.10
2018-03-25T11:39:29.775Z,12.60
2018-03-25T11:40:29.804Z,11.90
2018-03-25T11:41:29.766Z,11.30
2018-03-25T11:42:29.754Z,11.60
2018-03-25T11:43:29.700Z,12.20
2018-03-25T11:44:29.658Z,12.10
2018-03-25T11:45:29.690Z,11.20
2018-03-25T11:46:29.600Z,11.00
2018-03-25T11:47:29.580Z,11.10
2018-03-25T11:48:29.544Z,11.90
2018-03-25T11:49:29.552Z,10.80
2018-03-25T11:50:29.496Z,11.90
2018-03-25T11:51:29.530Z,12.40
2018-03-25T11:52:29.454Z,11.20
2018-03-25T11:53:29.494Z,11.40
2018-03-25T11:54:29.411Z,11.50
2018-03-25T11:55:29.421Z,12.10
2018-03-25T11:56:29.352Z,11.30
2018-03-25T11:57:29.330Z,11.50
2018-03-25T11:58:29.309Z,11.30
2018-03-25T11:59:29.278Z,10.90
2018-03-25T12:00:29.249Z,11.40
2018-03-25T12:01:29.231Z,10.20
2018-03-25T12:02:29.201Z,11.20
2018-03-25T12:03:29.178Z,10.20
2018-03-25T12:04:29.156Z,10.30
2018-03-25T12:05:29.128Z,11.20
2018-03-25T12:06:29.096Z,12.10
2018-03-25T12:07:29.096Z,11.10
2018-03-25T12:08:29.061Z,9.90
2018-03-25T12:09:29.035Z,10.20
2018-03-25T12:10:29.002Z,11.90
2018-03-25T12:11:29.063Z,11.30
2018-03-25T12:12:28.960Z,11.50
2018-03-25T12:13:28.960Z,10.60
2018-03-25T12:14:28.907Z,10.30
2018-03-25T12:15:28.877Z,10.80
2018-03-25T12:16:28.861Z,10.20
2018-03-25T12:17:28.828Z,9.00
2018-03-25T12:18:28.805Z,9.30
2018-03-25T12:19:28.817Z,8.40
2018-03-25T12:20:28.775Z,9.70
2018-03-25T12:21:29.192Z,10.00
2018-03-25T12:22:28.712Z,10.10
2018-03-25T12:23:28.686Z,9.20
2018-03-25T12:24:28.660Z,9.50
2018-03-25T12:25:28.638Z,10.10
2018-03-25T12:26:28.614Z,10.20
2018-03-25T12:27:28.616Z,9.70
2018-03-25T12:28:28.558Z,9.20
2018-03-25T12:29:28.539Z,9.90
2018-03-25T12:30:28.508Z,10.00
2018-03-25T12:31:28.487Z,10.10
2018-03-25T12:32:28.473Z,10.80
2018-03-25T12:33:28.440Z,10.30
2018-03-25T12:34:28.415Z,10.30
2018-03-25T12:35:28.398Z,9.70
2018-03-25T12:36:28.367Z,10.00
2018-03-25T12:37:28.346Z,9.90
2018-03-25T12:38:28.327Z,10.70
2018-03-25T12:39:28.295Z,9.80
2018-03-25T12:40:28.267Z,10.30
2018-03-25T12:41:28.418Z,9.10
2018-03-25T12:42:28.225Z,10.10
2018-03-25T12:43:28.202Z,10.00
2018-03-25T12:44:28.179Z,11.60
2018-03-25T12:45:28.164Z,10.60
2018-03-25T12:46:28.130Z,10.30
2018-03-25T12:47:28.100Z,10.10
2018-03-25T12:48:28.083Z,10.30
2018-03-25T12:49:28.060Z,10.40
2018-03-25T12:50:28.048Z,10.20
2018-03-25T12:51:28.008Z,10.50
2018-03-25T12:52:28.011Z,9.50
2018-03-25T12:53:27.961Z,10.90
2018-03-25T12:54:27.941Z,11.00
2018-03-25T12:55:27.986Z,10.40
2018-03-25T12:56:27.895Z,10.90
2018-03-25T12:57:27.863Z,9.60
2018-03-25T12:58:27.938Z,11.00
2018-03-25T12:59:27.811Z,10.40
2018-03-25T13:00:27.799Z,10.20
2018-03-25T13:01:27.765Z,10.40
2018-03-25T13:02:27.793Z,11.40
2018-03-25T13:03:27.717Z,10.60